createdAt,value
2018-03-29T00:00:12.456Z,70.68
2018-03-29T00:01:12.446Z,70.68
2018-03-29T00:02:12.434Z,70.68
2018-03-29T00:03:12.425Z,70.58
2018-03-29T00:04:12.413Z,70.68
2018-03-29T00:05:12.404Z,70.58
2018-03-29T00:06:12.393Z,70.78
2018-03-29T00:07:12.382Z,70.49
2018-03-29T00:08:12.368Z,70.78
2018-03-29T00:09:12.361Z,70.78
2018-03-29T00:10:12.348Z,71.15
2018-03-29T00:11:12.335Z,70.78
2018-03-29T00:12:12.327Z,70.49
2018-03-29T00:13:12.327Z,70.68
2018-03-29T00:14:12.302Z,70.97
2018-03-29T00:15:12.289Z,71.06
2018-03-29T00:16:12.279Z,71.15
2018-03-29T00:17:12.268Z,71.15
2018-03-29T00:18:12.262Z,71.15
2018-03-29T00:19:12.247Z,71.44
2018-03-29T00:20:12.231Z,71.06
2018-03-29T00:21:12.228Z,70.87
2018-03-29T00:22:12.208Z,71.06
2018-03-29T00:23:12.196Z,70.78
2018-03-29T00:24:12.191Z,70.68
2018-03-29T00:25:12.181Z,71.15
2018-03-29T00:26:12.162Z,71.62
2018-03-29T00:27:12.156Z,70.87
2018-03-29T00:28:12.139Z,70.97
2018-03-29T00:29:12.138Z,71.15
2018-03-29T00:30:12.119Z,70.87
2018-03-29T00:31:12.110Z,70.68
2018-03-29T00:32:12.098Z,71.34
2018-03-29T00:33:12.087Z,70.97
2018-03-29T00:34:12.083Z,70.78
2018-03-29T00:35:12.065Z,70.39
2018-03-29T00:36:12.052Z,70.97
2018-03-29T00:37:12.042Z,71.06
2018-03-29T00:38:12.031Z,71.15
2018-03-29T00:39:12.019Z,70.87
2018-03-29T00:40:12.003Z,70.87
2018-03-29T00:41:11.993Z,71.53
2018-03-29T00:42:11.984Z,70.97
2018-03-29T00:43:11.977Z,71.06
2018-03-29T00:44:11.960Z,70.78
2018-03-29T00:45:11.947Z,70.68
2018-03-29T00:46:11.941Z,70.68
2018-03-29T00:47:11.924Z,71.15
2018-03-29T00:48:11.913Z,70.87
2018-03-29T00:49:11.911Z,70.78
2018-03-29T00:50:11.897Z,71.06
2018-03-29T00:51:11.882Z,71.06
2018-03-29T00:52:11.875Z,70.68
2018-03-29T00:53:11.862Z,70.97
2018-03-29T00:54:11.869Z,70.78
2018-03-29T00:55:11.837Z,70.58
2018-03-29T00:56:11.824Z,70.58
2018-03-29T00:57:11.819Z,70.58
2018-03-29T00:58:11.803Z,70.97
2018-03-29T00:59:11.789Z,70.58
2018-03-29T01:00:11.781Z,70.97
2018-03-29T01:01:11.769Z,70.97
2018-03-29T01:02:11.753Z,71.06
2018-03-29T01:03:11.742Z,70.49
2018-03-29T01:04:11.734Z,70.68
2018-03-29T01:05:11.722Z,70.58
2018-03-29T01:06:11.712Z,70.68
2018-03-29T01:07:11.700Z,70.49
2018-03-29T01:08:11.687Z,70.39
2018-03-29T01:09:11.677Z,70.68
2018-03-29T01:10:11.666Z,70.87
2018-03-29T01:11:11.657Z,70.87
2018-03-29T01:12:11.645Z,70.97
2018-03-29T01:13:11.631Z,70.97
2018-03-29T01:14:11.618Z,71.06
2018-03-29T01:15:11.607Z,70.49
2018-03-29T01:16:11.595Z,70.78
2018-03-29T01:17:11.586Z,70.49
2018-03-29T01:18:11.577Z,70.58
2018-03-29T01:19:11.570Z,70.49
2018-03-29T01:20:11.553Z,70.97
2018-03-29T01:21:11.538Z,70.58
2018-03-29T01:22:11.529Z,70.97
2018-03-29T01:23:11.519Z,71.25
2018-03-29T01:24:11.509Z,71.06
2018-03-29T01:25:11.498Z,71.15
2018-03-29T01:26:11.488Z,70.68
2018-03-29T01:27:11.474Z,70.58
2018-03-29T01:28:11.462Z,70.68
2018-03-29T01:29:11.450Z,70.68
2018-03-29T01:30:11.479Z,71.25
2018-03-29T01:31:11.427Z,71.15
2018-03-29T01:32:11.419Z,70.78
2018-03-29T01:33:11.411Z,70.87
2018-03-29T01:34:11.393Z,70.39
2018-03-29T01:35:11.380Z,71.06
2018-03-29T01:36:11.372Z,71.81
2018-03-29T01:37:11.363Z,71.25
2018-03-29T01:38:11.354Z,70.78
2018-03-29T01:39:11.340Z,71.06
2018-03-29T01:40:11.329Z,70.87
2018-03-29T01:41:11.313Z,71.25
2018-03-29T01:42:11.305Z,71.25
2018-03-29T01:43:11.289Z,71.44
2018-03-29T01:44:11.282Z,71.53
2018-03-29T01:45:11.273Z,71.15
2018-03-29T01:46:26.017Z,71.15
2018-03-29T01:47:11.247Z,70.97
2018-03-29T01:48:11.232Z,70.97
2018-03-29T01:49:11.237Z,70.49
2018-03-29T01:50:11.215Z,70.58
2018-03-29T01:51:11.201Z,70.68
2018-03-29T01:52:11.191Z,70.68
2018-03-29T01:53:11.182Z,70.78
2018-03-29T01:54:11.167Z,70.68
2018-03-29T01:55:11.159Z,71.06
2018-03-29T01:56:11.148Z,71.06
2018-03-29T01:57:11.144Z,70.68
2018-03-29T01:58:11.123Z,70.49
2018-03-29T01:59:11.113Z,70.68
2018-03-29T02:00:11.101Z,70.39
2018-03-29T02:01:11.089Z,70.68
2018-03-29T02:02:11.076Z,70.68
2018-03-29T02:03:11.063Z,70.49
2018-03-29T02:04:11.054Z,70.58
2018-03-29T02:05:11.047Z,70.49
2018-03-29T02:06:11.035Z,70.78
2018-03-29T02:07:11.024Z,70.39
2018-03-29T02:08:11.038Z,70.58
2018-03-29T02:09:11.025Z,70.58
2018-03-29T02:10:11.010Z,70.58
2018-03-29T02:11:10.980Z,70.49
2018-03-29T02:12:10.966Z,70.58
2018-03-29T02:13:10.955Z,70.58
2018-03-29T02:14:10.939Z,70.97
2018-03-29T02:15:10.927Z,70.49
2018-03-29T02:16:10.916Z,70.39
2018-03-29T02:17:10.908Z,70.78
2018-03-29T02:18:10.898Z,71.15
2018-03-29T02:19:10.887Z,70.49
2018-03-29T02:20:10.877Z,70.68
2018-03-29T02:21:10.868Z,71.06
2018-03-29T02:22:10.848Z,71.34
2018-03-29T02:23:10.848Z,71.15
2018-03-29T02:24:10.827Z,71.62
2018-03-29T02:25:10.826Z,71.53
2018-03-29T02:26:10.809Z,71.06
2018-03-29T02:27:10.844Z,71.06
2018-03-29T02:28:10.779Z,71.06
2018-03-29T02:29:10.770Z,71.15
2018-03-29T02:30:10.770Z,71.15
2018-03-29T02:31:10.751Z,71.72
2018-03-29T02:32:10.745Z,71.91
2018-03-29T02:33:10.752Z,71.81
2018-03-29T02:34:10.718Z,71.15
2018-03-29T02:35:10.705Z,71.25
2018-03-29T02:36:10.692Z,71.34
2018-03-29T02:37:10.684Z,71.25
2018-03-29T02:38:10.672Z,71.25
2018-03-29T02:39:10.661Z,71.15
2018-03-29T02:40:10.652Z,71.15
2018-03-29T02:41:10.639Z,71.44
2018-03-29T02:42:10.623Z,71.15
2018-03-29T02:43:10.611Z,71.25
2018-03-29T02:44:10.606Z,71.25
2018-03-29T02:45:10.596Z,71.25
2018-03-29T02:46:10.584Z,71.15
2018-03-29T02:47:10.647Z,71.06
2018-03-29T02:48:10.569Z,71.44
2018-03-29T02:49:10.544Z,70.97
2018-03-29T02:50:10.534Z,71.15
2018-03-29T02:51:10.523Z,71.15
2018-03-29T02:52:10.511Z,71.34
2018-03-29T02:53:10.506Z,70.97
2018-03-29T02:54:10.504Z,71.34
2018-03-29T02:55:10.537Z,71.06
2018-03-29T02:56:10.475Z,71.06
2018-03-29T02:57:10.458Z,71.06
2018-03-29T02:58:10.495Z,70.97
2018-03-29T02:59:10.432Z,70.97
2018-03-29T03:00:10.419Z,71.25
2018-03-29T03:01:10.410Z,70.87
2018-03-29T03:02:10.402Z,71.06
2018-03-29T03:03:10.399Z,70.58
2018-03-29T03:04:10.380Z,71.15
2018-03-29T03:05:10.361Z,71.15
2018-03-29T03:06:10.356Z,70.87
2018-03-29T03:07:10.343Z,70.97
2018-03-29T03:08:10.332Z,70.87
2018-03-29T03:09:10.321Z,70.97
2018-03-29T03:10:10.307Z,70.68
2018-03-29T03:11:10.298Z,70.97
2018-03-29T03:12:10.282Z,70.97
2018-03-29T03:13:10.275Z,71.06
2018-03-29T03:14:10.263Z,71.25
2018-03-29T03:15:10.253Z,71.15
2018-03-29T03:16:10.240Z,71.44
2018-03-29T03:17:10.232Z,70.87
2018-03-29T03:18:10.218Z,70.97
2018-03-29T03:19:10.208Z,70.87
2018-03-29T03:20:10.195Z,71.53
2018-03-29T03:21:10.184Z,71.25
2018-03-29T03:22:10.197Z,70.97
2018-03-29T03:23:10.160Z,71.15
2018-03-29T03:24:10.149Z,71.25
2018-03-29T03:25:10.137Z,71.15
2018-03-29T03:26:10.126Z,70.97
2018-03-29T03:27:10.113Z,70.78
2018-03-29T03:28:10.110Z,71.06
2018-03-29T03:29:10.093Z,71.15
2018-03-29T03:30:10.085Z,70.97
2018-03-29T03:31:10.070Z,71.53
2018-03-29T03:32:10.061Z,71.44
2018-03-29T03:33:10.045Z,70.97
2018-03-29T03:34:10.039Z,70.87
2018-03-29T03:35:10.026Z,71.06
2018-03-29T03:36:10.013Z,70.97
2018-03-29T03:37:09.997Z,70.97
2018-03-29T03:38:09.995Z,71.06
2018-03-29T03:39:09.974Z,71.15
2018-03-29T03:40:09.964Z,71.15
2018-03-29T03:41:09.956Z,70.97
2018-03-29T03:42:09.945Z,71.44
2018-03-29T03:43:09.934Z,71.44
2018-03-29T03:44:09.919Z,71.91
2018-03-29T03:45:09.911Z,72.00
2018-03-29T03:46:09.899Z,71.44
2018-03-29T03:47:09.885Z,71.15
2018-03-29T03:48:09.877Z,70.87
2018-03-29T03:49:09.866Z,70.87
2018-03-29T03:50:09.860Z,70.68
2018-03-29T03:51:09.843Z,70.49
2018-03-29T03:52:09.831Z,70.58
2018-03-29T03:53:09.818Z,71.15
2018-03-29T03:54:09.807Z,70.87
2018-03-29T03:55:09.800Z,70.58
2018-03-29T03:56:09.784Z,70.49
2018-03-29T03:57:09.773Z,70.87
2018-03-29T03:58:09.766Z,71.06
2018-03-29T03:59:09.748Z,70.87
2018-03-29T04:00:09.736Z,71.06
2018-03-29T04:01:09.733Z,70.78
2018-03-29T04:02:09.721Z,70.58
2018-03-29T04:03:09.706Z,70.87
2018-03-29T04:04:09.697Z,71.06
2018-03-29T04:05:09.684Z,71.06
2018-03-29T04:06:09.673Z,70.49
2018-03-29T04:07:09.659Z,70.68
2018-03-29T04:08:09.648Z,70.68
2018-03-29T04:09:09.639Z,70.78
2018-03-29T04:10:09.631Z,70.58
2018-03-29T04:11:09.618Z,70.78
2018-03-29T04:12:09.613Z,71.34
2018-03-29T04:13:09.595Z,70.78
2018-03-29T04:14:09.594Z,70.78
2018-03-29T04:15:09.572Z,70.49
2018-03-29T04:16:09.560Z,70.49
2018-03-29T04:17:09.555Z,70.39
2018-03-29T04:18:09.539Z,70.49
2018-03-29T04:19:09.527Z,70.97
2018-03-29T04:20:09.515Z,71.15
2018-03-29T04:21:09.506Z,71.44
2018-03-29T04:22:09.491Z,71.15
2018-03-29T04:23:09.484Z,71.15
2018-03-29T04:24:09.470Z,71.06
2018-03-29T04:25:09.459Z,71.15
2018-03-29T04:26:09.447Z,70.58
2018-03-29T04:27:09.433Z,70.78
2018-03-29T04:28:09.422Z,71.06
2018-03-29T04:29:09.415Z,71.15
2018-03-29T04:30:09.408Z,70.49
2018-03-29T04:31:09.391Z,71.06
2018-03-29T04:32:09.380Z,70.97
2018-03-29T04:33:09.370Z,71.25
2018-03-29T04:34:09.356Z,71.06
2018-03-29T04:35:09.346Z,71.15
2018-03-29T04:36:09.337Z,70.78
2018-03-29T04:37:09.326Z,70.97
2018-03-29T04:38:09.312Z,70.49
2018-03-29T04:39:09.302Z,70.68
2018-03-29T04:40:09.296Z,71.06
2018-03-29T04:41:09.277Z,71.06
2018-03-29T04:42:09.272Z,70.78
2018-03-29T04:43:09.258Z,70.49
2018-03-29T04:44:09.246Z,70.58
2018-03-29T04:45:09.238Z,71.15
2018-03-29T04:46:09.225Z,71.53
2018-03-29T04:47:09.208Z,71.44
2018-03-29T04:48:09.199Z,70.97
2018-03-29T04:49:09.231Z,70.78
2018-03-29T04:50:09.180Z,70.58
2018-03-29T04:51:09.171Z,70.68
2018-03-29T04:52:09.156Z,70.78
2018-03-29T04:53:09.146Z,70.78
2018-03-29T04:54:09.132Z,70.68
2018-03-29T04:55:09.119Z,70.39
2018-03-29T04:56:09.108Z,70.58
2018-03-29T04:57:09.102Z,70.49
2018-03-29T04:58:09.089Z,70.58
2018-03-29T04:59:09.071Z,70.39
2018-03-29T05:00:09.065Z,70.49
2018-03-29T05:01:09.058Z,70.78
2018-03-29T05:02:09.048Z,70.39
2018-03-29T05:03:09.029Z,70.78
2018-03-29T05:04:09.022Z,70.97
2018-03-29T05:05:09.011Z,70.39
2018-03-29T05:06:09.001Z,70.78
2018-03-29T05:07:08.989Z,70.39
2018-03-29T05:08:08.973Z,70.39
2018-03-29T05:09:08.964Z,70.58
2018-03-29T05:10:08.954Z,70.49
2018-03-29T05:11:08.944Z,70.49
2018-03-29T05:12:08.928Z,70.58
2018-03-29T05:13:08.929Z,70.39
2018-03-29T05:14:08.920Z,70.39
2018-03-29T05:15:08.895Z,70.39
2018-03-29T05:16:08.886Z,70.78
2018-03-29T05:17:08.872Z,70.78
2018-03-29T05:18:08.869Z,70.78
2018-03-29T05:19:08.850Z,70.58
2018-03-29T05:20:08.846Z,70.87
2018-03-29T05:21:08.825Z,70.68
2018-03-29T05:22:08.816Z,70.58
2018-03-29T05:23:08.805Z,70.68
2018-03-29T05:24:08.798Z,70.68
2018-03-29T05:25:08.787Z,70.97
2018-03-29T05:26:08.775Z,71.06
2018-03-29T05:27:08.764Z,71.06
2018-03-29T05:28:08.748Z,71.06
2018-03-29T05:29:08.740Z,70.97
2018-03-29T05:30:08.727Z,70.87
2018-03-29T05:31:08.720Z,70.87
2018-03-29T05:32:08.716Z,70.68
2018-03-29T05:33:08.696Z,70.78
2018-03-29T05:34:08.688Z,70.78
2018-03-29T05:35:08.674Z,70.68
2018-03-29T05:36:08.660Z,70.68
2018-03-29T05:37:08.649Z,70.78
2018-03-29T05:38:08.639Z,70.58
2018-03-29T05:39:08.630Z,70.49
2018-03-29T05:40:08.634Z,70.78
2018-03-29T05:41:08.611Z,70.58
2018-03-29T05:42:08.594Z,70.68
2018-03-29T05:43:08.583Z,70.78
2018-03-29T05:44:08.575Z,70.49
2018-03-29T05:45:08.615Z,70.68
2018-03-29T05:46:08.554Z,70.58
2018-03-29T05:47:08.542Z,70.58
2018-03-29T05:48:08.528Z,70.78
2018-03-29T05:49:08.516Z,70.58
2018-03-29T05:50:08.526Z,70.58
2018-03-29T05:51:08.495Z,70.58
2018-03-29T05:52:08.487Z,70.39
2018-03-29T05:53:08.477Z,71.25
2018-03-29T05:54:08.464Z,71.06
2018-03-29T05:55:08.448Z,70.87
2018-03-29T05:56:08.436Z,70.78
2018-03-29T05:57:08.428Z,70.87
2018-03-29T05:58:08.421Z,70.58
2018-03-29T05:59:08.410Z,70.39
2018-03-29T06:00:08.399Z,70.87
2018-03-29T06:01:08.382Z,70.68
2018-03-29T06:02:08.371Z,70.87
2018-03-29T06:03:08.414Z,70.68
2018-03-29T06:04:08.350Z,71.25
2018-03-29T06:05:08.343Z,70.97
2018-03-29T06:06:08.328Z,71.34
2018-03-29T06:07:08.319Z,71.44
2018-03-29T06:08:08.312Z,71.44
2018-03-29T06:09:08.298Z,71.44
2018-03-29T06:10:08.295Z,71.06
2018-03-29T06:11:08.273Z,70.78
2018-03-29T06:12:08.261Z,71.62
2018-03-29T06:13:08.254Z,71.62
2018-03-29T06:14:08.246Z,71.25
2018-03-29T06:15:08.232Z,71.44
2018-03-29T06:16:08.223Z,71.72
2018-03-29T06:17:08.206Z,71.38
2018-03-29T06:18:08.195Z,71.38
2018-03-29T06:19:08.189Z,71.72
2018-03-29T06:20:08.176Z,71.66
2018-03-29T06:21:08.172Z,71.38
2018-03-29T06:22:08.156Z,71.09
2018-03-29T06:23:08.182Z,71.38
2018-03-29T06:24:08.128Z,71.28
2018-03-29T06:25:08.128Z,71.44
2018-03-29T06:26:08.110Z,71.28
2018-03-29T06:27:08.104Z,71.34
2018-03-29T06:28:08.093Z,71.38
2018-03-29T06:29:08.075Z,71.47
2018-03-29T06:30:08.124Z,71.28
2018-03-29T06:31:08.086Z,71.38
2018-03-29T06:32:08.045Z,71.28
2018-03-29T06:33:08.034Z,71.47
2018-03-29T06:34:08.026Z,72.14
2018-03-29T06:35:08.013Z,71.76
2018-03-29T06:36:08.000Z,71.95
2018-03-29T06:37:08.001Z,71.76
2018-03-29T06:38:07.983Z,72.14
2018-03-29T06:39:07.970Z,71.85
2018-03-29T06:40:07.959Z,71.76
2018-03-29T06:41:07.948Z,71.85
2018-03-29T06:42:07.940Z,71.76
2018-03-29T06:43:07.926Z,72.04
2018-03-29T06:44:07.920Z,71.95
2018-03-29T06:45:07.901Z,72.80
2018-03-29T06:46:07.893Z,72.42
2018-03-29T06:47:07.883Z,72.99
2018-03-29T06:48:07.873Z,72.99
2018-03-29T06:49:07.864Z,72.89
2018-03-29T06:50:07.853Z,72.80
2018-03-29T06:51:07.842Z,72.80
2018-03-29T06:52:07.831Z,72.99
2018-03-29T06:53:07.819Z,72.99
2018-03-29T06:54:07.808Z,73.18
2018-03-29T06:55:07.795Z,72.42
2018-03-29T06:56:07.787Z,72.33
2018-03-29T06:57:07.776Z,72.89
2018-03-29T06:58:07.765Z,73.08
2018-03-29T06:59:07.760Z,72.23
2018-03-29T07:00:07.742Z,72.04
2018-03-29T07:01:07.838Z,72.52
2018-03-29T07:02:07.724Z,72.42
2018-03-29T07:03:07.715Z,72.52
2018-03-29T07:04:07.704Z,72.61
2018-03-29T07:05:07.696Z,72.71
2018-03-29T07:06:07.682Z,72.52
2018-03-29T07:07:07.667Z,72.99
2018-03-29T07:08:07.662Z,72.89
2018-03-29T07:09:07.649Z,72.99
2018-03-29T07:10:07.644Z,73.18
2018-03-29T07:11:07.628Z,72.80
2018-03-29T07:12:07.621Z,72.61
2018-03-29T07:13:07.610Z,72.23
2018-03-29T07:14:07.597Z,73.46
2018-03-29T07:15:07.585Z,73.37
2018-03-29T07:16:07.572Z,73.18
2018-03-29T07:17:07.569Z,73.08
2018-03-29T07:18:07.556Z,72.80
2018-03-29T07:19:07.545Z,72.99
2018-03-29T07:20:07.532Z,72.89
2018-03-29T07:21:07.520Z,72.89
2018-03-29T07:22:07.513Z,73.56
2018-03-29T07:23:07.498Z,72.89
2018-03-29T07:24:07.493Z,73.46
2018-03-29T07:25:07.480Z,72.99
2018-03-29T07:26:07.472Z,73.08
2018-03-29T07:27:07.460Z,72.99
2018-03-29T07:28:07.455Z,72.80
2018-03-29T07:29:07.435Z,73.08
2018-03-29T07:30:07.426Z,72.42
2018-03-29T07:31:07.418Z,72.80
2018-03-29T07:32:07.406Z,72.80
2018-03-29T07:33:07.400Z,72.71
2018-03-29T07:34:07.386Z,72.61
2018-03-29T07:35:07.375Z,72.80
2018-03-29T07:36:07.361Z,72.61
2018-03-29T07:37:07.364Z,73.75
2018-03-29T07:38:07.340Z,73.94
2018-03-29T07:39:07.334Z,73.65
2018-03-29T07:40:07.320Z,74.13
2018-03-29T07:41:07.311Z,73.94
2018-03-29T07:42:07.298Z,73.79
2018-03-29T07:43:07.288Z,73.50
2018-03-29T07:44:07.278Z,73.27
2018-03-29T07:45:07.270Z,73.50
2018-03-29T07:46:07.261Z,73.97
2018-03-29T07:47:07.301Z,73.84
2018-03-29T07:48:07.240Z,73.84
2018-03-29T07:49:07.224Z,74.26
2018-03-29T07:50:07.223Z,74.64
2018-03-29T07:51:07.205Z,74.73
2018-03-29T07:52:07.196Z,74.54
2018-03-29T07:53:07.203Z,73.60
2018-03-29T07:54:07.200Z,73.79
2018-03-29T07:55:07.164Z,73.88
2018-03-29T07:56:07.158Z,73.88
2018-03-29T07:57:07.141Z,74.07
2018-03-29T07:58:07.132Z,74.07
2018-03-29T07:59:07.126Z,74.35
2018-03-29T08:00:07.112Z,73.97
2018-03-29T08:01:07.100Z,74.45
2018-03-29T08:02:07.091Z,74.26
2018-03-29T08:03:07.082Z,73.69
2018-03-29T08:04:07.074Z,74.92
2018-03-29T08:05:07.065Z,75.21
2018-03-29T08:06:07.054Z,74.45
2018-03-29T08:07:07.044Z,75.31
2018-03-29T08:08:07.039Z,74.92
2018-03-29T08:09:07.027Z,76.06
2018-03-29T08:10:07.016Z,75.87
2018-03-29T08:11:07.004Z,76.44
2018-03-29T08:12:06.995Z,76.34
2018-03-29T08:13:06.980Z,77.24
2018-03-29T08:14:06.978Z,76.76
2018-03-29T08:15:06.965Z,77.71
2018-03-29T08:16:06.952Z,77.14
2018-03-29T08:17:06.941Z,76.86
2018-03-29T08:18:06.933Z,77.62
2018-03-29T08:19:06.925Z,78.28
2018-03-29T08:20:06.913Z,80.27
2018-03-29T08:21:06.906Z,77.71
2018-03-29T08:22:06.896Z,79.80
2018-03-29T08:23:06.887Z,80.94
2018-03-29T08:24:06.879Z,77.90
2018-03-29T08:25:06.867Z,77.71
2018-03-29T08:26:06.861Z,77.14
2018-03-29T08:27:06.851Z,77.52
2018-03-29T08:28:06.840Z,78.09
2018-03-29T08:29:06.829Z,78.66
2018-03-29T08:30:06.824Z,77.81
2018-03-29T08:31:06.811Z,77.71
2018-03-29T08:32:06.803Z,77.62
2018-03-29T08:33:06.814Z,77.90
2018-03-29T08:34:06.781Z,76.57
2018-03-29T08:35:06.775Z,78.19
2018-03-29T08:36:06.764Z,77.43
2018-03-29T08:37:06.752Z,78.38
2018-03-29T08:38:06.746Z,78.66
2018-03-29T08:39:06.736Z,77.52
2018-03-29T08:40:06.724Z,79.14
2018-03-29T08:41:06.721Z,80.08
2018-03-29T08:42:06.707Z,78.00
2018-03-29T08:43:06.698Z,77.81
2018-03-29T08:44:06.689Z,80.37
2018-03-29T08:45:06.681Z,78.38
2018-03-29T08:46:06.673Z,78.00
2018-03-29T08:47:06.661Z,78.75
2018-03-29T08:48:06.683Z,80.84
2018-03-29T08:49:06.638Z,81.23
2018-03-29T08:50:06.628Z,77.71
2018-03-29T08:51:06.620Z,76.86
2018-03-29T08:52:06.612Z,79.14
2018-03-29T08:53:06.608Z,77.90
2018-03-29T08:54:06.596Z,81.04
2018-03-29T08:55:06.582Z,78.56
2018-03-29T08:56:06.571Z,82.17
2018-03-29T08:57:06.560Z,81.98
2018-03-29T08:58:06.557Z,80.65
2018-03-29T08:59:06.544Z,78.56
2018-03-29T09:00:06.535Z,78.85
2018-03-29T09:01:06.528Z,77.52
2018-03-29T09:02:06.531Z,79.84
2018-03-29T09:03:06.526Z,81.84
2018-03-29T09:04:06.496Z,82.40
2018-03-29T09:05:06.493Z,82.12
2018-03-29T09:06:06.481Z,84.59
2018-03-29T09:07:06.492Z,82.69
2018-03-29T09:08:06.457Z,78.32
2018-03-29T09:09:06.449Z,79.94
2018-03-29T09:10:06.445Z,81.07
2018-03-29T09:11:06.435Z,79.94
2018-03-29T09:12:06.424Z,80.60
2018-03-29T09:13:06.424Z,78.32
2018-03-29T09:14:06.408Z,78.80
2018-03-29T09:15:06.395Z,79.46
2018-03-29T09:16:06.389Z,79.94
2018-03-29T09:17:06.384Z,80.69
2018-03-29T09:18:06.373Z,80.69
2018-03-29T09:19:06.362Z,79.74
2018-03-29T09:20:06.352Z,82.50
2018-03-29T09:21:06.355Z,83.45
2018-03-29T09:22:06.337Z,79.84
2018-03-29T09:23:06.323Z,83.92
2018-03-29T09:24:06.319Z,80.22
2018-03-29T09:25:06.324Z,80.03
2018-03-29T09:26:06.305Z,82.78
2018-03-29T09:27:06.294Z,84.30
2018-03-29T09:28:06.283Z,83.26
2018-03-29T09:29:06.269Z,80.60
2018-03-29T09:30:06.262Z,82.59
2018-03-29T09:31:06.257Z,79.08
2018-03-29T09:32:06.245Z,82.97
2018-03-29T09:33:06.236Z,80.60
2018-03-29T09:34:06.226Z,84.30
2018-03-29T09:35:06.219Z,83.64
2018-03-29T09:36:06.211Z,81.07
2018-03-29T09:37:06.200Z,81.74
2018-03-29T09:38:06.192Z,85.91
2018-03-29T09:39:06.184Z,85.25
2018-03-29T09:40:06.182Z,84.40
2018-03-29T09:41:06.165Z,83.87
2018-03-29T09:42:06.165Z,81.36
2018-03-29T09:43:06.159Z,83.83
2018-03-29T09:44:06.140Z,86.11
2018-03-29T09:45:06.134Z,84.25
2018-03-29T09:46:06.125Z,86.43
2018-03-29T09:47:06.117Z,82.64
2018-03-29T09:48:06.108Z,82.07
2018-03-29T09:49:06.096Z,79.79
2018-03-29T09:50:06.097Z,85.96
2018-03-29T09:51:06.081Z,84.82
2018-03-29T09:52:06.072Z,85.49
2018-03-29T09:53:06.070Z,87.19
2018-03-29T09:54:06.056Z,86.24
2018-03-29T09:55:06.047Z,88.90
2018-03-29T09:56:06.041Z,81.12
2018-03-29T09:57:06.032Z,88.05
2018-03-29T09:58:06.025Z,85.58
2018-03-29T09:59:06.010Z,88.43
2018-03-29T10:00:06.008Z,86.34
2018-03-29T10:01:05.995Z,79.83
2018-03-29T10:02:05.989Z,82.39
2018-03-29T10:03:05.976Z,85.91
2018-03-29T10:04:05.973Z,84.44
2018-03-29T10:05:05.963Z,84.01
2018-03-29T10:06:05.962Z,83.15
2018-03-29T10:07:05.950Z,85.91
2018-03-29T10:08:05.938Z,86.67
2018-03-29T10:09:05.928Z,84.29
2018-03-29T10:10:05.921Z,85.34
2018-03-29T10:11:05.918Z,84.58
2018-03-29T10:12:05.906Z,86.29
2018-03-29T10:13:05.900Z,87.34
2018-03-29T10:14:05.892Z,88.00
2018-03-29T10:15:05.881Z,84.39
2018-03-29T10:16:05.878Z,88.09
2018-03-29T10:17:05.867Z,87.05
2018-03-29T10:18:05.863Z,84.91
2018-03-29T10:19:05.853Z,83.39
2018-03-29T10:20:05.844Z,84.05
2018-03-29T10:21:05.837Z,89.00
2018-03-29T10:22:05.832Z,86.24
2018-03-29T10:23:05.820Z,84.91
2018-03-29T10:24:05.824Z,86.52
2018-03-29T10:25:05.812Z,84.24
2018-03-29T10:26:05.803Z,82.62
2018-03-29T10:27:05.791Z,87.47
2018-03-29T10:28:05.785Z,85.10
2018-03-29T10:29:05.784Z,84.72
2018-03-29T10:30:05.777Z,83.76
2018-03-29T10:31:05.766Z,83.58
2018-03-29T10:32:05.763Z,85.28
2018-03-29T10:33:05.753Z,85.28
2018-03-29T10:34:05.748Z,87.76
2018-03-29T10:35:05.738Z,87.47
2018-03-29T10:36:05.733Z,85.86
2018-03-29T10:37:05.732Z,84.72
2018-03-29T10:38:05.721Z,82.71
2018-03-29T10:39:05.754Z,87.09
2018-03-29T10:40:05.703Z,83.29
2018-03-29T10:41:05.699Z,87.85
2018-03-29T10:42:05.692Z,87.57
2018-03-29T10:43:05.684Z,87.09
2018-03-29T10:44:05.674Z,83.95
2018-03-29T10:45:05.678Z,88.23
2018-03-29T10:46:05.666Z,83.29
2018-03-29T10:47:05.653Z,84.81
2018-03-29T10:48:05.648Z,85.28
2018-03-29T10:49:05.635Z,87.09
2018-03-29T10:50:05.635Z,84.05
2018-03-29T10:51:05.625Z,83.00
2018-03-29T10:52:05.616Z,85.81
2018-03-29T10:53:05.609Z,85.10
2018-03-29T10:54:05.651Z,85.10
2018-03-29T10:55:05.596Z,83.95
2018-03-29T10:56:05.590Z,87.90
2018-03-29T10:57:05.582Z,83.86
2018-03-29T10:58:05.596Z,83.76
2018-03-29T10:59:05.560Z,88.67
2018-03-29T11:00:05.553Z,86.14
2018-03-29T11:01:05.549Z,83.39
2018-03-29T11:02:05.541Z,86.33
2018-03-29T11:03:05.535Z,85.10
2018-03-29T11:04:05.528Z,85.76
2018-03-29T11:05:05.517Z,90.23
2018-03-29T11:06:05.509Z,81.96
2018-03-29T11:07:05.506Z,87.23
2018-03-29T11:08:05.496Z,82.48
2018-03-29T11:09:05.491Z,87.13
2018-03-29T11:10:05.491Z,87.80
2018-03-29T11:11:05.476Z,88.89
2018-03-29T11:12:05.472Z,80.95
2018-03-29T11:13:05.462Z,83.33
2018-03-29T11:14:05.457Z,84.56
2018-03-29T11:15:05.447Z,81.71
2018-03-29T11:16:05.442Z,81.71
2018-03-29T11:17:05.438Z,82.00
2018-03-29T11:18:05.432Z,86.94
2018-03-29T11:19:05.423Z,85.33
2018-03-29T11:20:05.440Z,83.04
2018-03-29T11:21:05.410Z,84.76
2018-03-29T11:22:05.403Z,87.65
2018-03-29T11:23:05.402Z,82.99
2018-03-29T11:24:05.398Z,84.33
2018-03-29T11:25:05.446Z,84.99
2018-03-29T11:26:05.386Z,86.22
2018-03-29T11:27:05.378Z,83.75
2018-03-29T11:28:05.370Z,80.23
2018-03-29T11:29:05.368Z,79.09
2018-03-29T11:30:05.370Z,77.28
2018-03-29T11:31:05.358Z,80.42
2018-03-29T11:32:05.354Z,73.76
2018-03-29T11:33:05.344Z,82.99
2018-03-29T11:34:05.341Z,85.47
2018-03-29T11:35:05.336Z,81.56
2018-03-29T11:36:05.354Z,81.66
2018-03-29T11:37:05.333Z,85.37
2018-03-29T11:38:05.323Z,82.84
2018-03-29T11:39:05.312Z,86.94
2018-03-29T11:40:05.311Z,75.79
2018-03-29T11:41:05.304Z,79.93
2018-03-29T11:42:05.301Z,85.55
2018-03-29T11:43:05.299Z,83.36
2018-03-29T11:44:05.303Z,77.36
2018-03-29T11:45:05.294Z,79.55
2018-03-29T11:46:05.283Z,82.45
2018-03-29T11:47:05.281Z,78.35
2018-03-29T11:48:05.280Z,81.68
2018-03-29T11:49:05.280Z,83.12
2018-03-29T11:50:05.281Z,82.26
2018-03-29T11:51:05.275Z,75.34
2018-03-29T11:52:05.280Z,79.30
2018-03-29T11:53:05.270Z,87.50
2018-03-29T11:54:05.267Z,79.30
2018-03-29T11:55:05.262Z,77.78
2018-03-29T11:56:05.268Z,81.59
2018-03-29T11:57:05.264Z,77.34
2018-03-29T11:58:05.261Z,77.44
2018-03-29T11:59:05.259Z,81.44
2018-03-29T12:00:05.262Z,83.44
2018-03-29T12:01:05.255Z,80.20
2018-03-29T12:02:05.256Z,77.67
2018-03-29T12:03:05.256Z,79.67
2018-03-29T12:04:05.260Z,77.76
2018-03-29T12:05:05.312Z,79.44
2018-03-29T12:06:05.253Z,80.33
2018-03-29T12:07:05.254Z,73.66
2018-03-29T12:08:05.255Z,78.23
2018-03-29T12:09:05.254Z,83.48
2018-03-29T12:10:05.261Z,77.57
2018-03-29T12:11:05.254Z,74.08
2018-03-29T12:12:05.253Z,82.09
2018-03-29T12:13:05.257Z,83.14
2018-03-29T12:14:05.258Z,71.78
2018-03-29T12:15:05.264Z,76.52
2018-03-29T12:16:05.264Z,75.66
2018-03-29T12:17:05.260Z,78.67
2018-03-29T12:18:05.276Z,80.49
2018-03-29T12:19:05.261Z,68.98
2018-03-29T12:20:05.260Z,78.05
2018-03-29T12:21:05.265Z,83.39
2018-03-29T12:22:05.269Z,83.91
2018-03-29T12:23:05.267Z,67.30
2018-03-29T12:24:05.265Z,74.74
2018-03-29T12:25:05.324Z,85.72
2018-03-29T12:26:05.266Z,85.58
2018-03-29T12:27:05.271Z,75.07
2018-03-29T12:28:05.271Z,83.00
2018-03-29T12:29:05.272Z,71.82
2018-03-29T12:30:05.277Z,81.22
2018-03-29T12:31:05.274Z,77.01
2018-03-29T12:32:05.278Z,78.36
2018-03-29T12:33:05.282Z,71.44
2018-03-29T12:34:05.284Z,75.83
2018-03-29T12:35:05.281Z,78.70
2018-03-29T12:36:05.286Z,81.18
2018-03-29T12:37:05.288Z,79.46
2018-03-29T12:38:05.287Z,77.17
2018-03-29T12:39:05.290Z,71.92
2018-03-29T12:40:05.288Z,75.54
2018-03-29T12:41:05.291Z,70.29
2018-03-29T12:42:05.296Z,71.72
2018-03-29T12:43:05.298Z,84.14
2018-03-29T12:44:05.295Z,74.27
2018-03-29T12:45:05.353Z,63.76
2018-03-29T12:46:05.297Z,79.71
2018-03-29T12:47:05.296Z,66.63
2018-03-29T12:48:05.316Z,82.82
2018-03-29T12:49:05.306Z,70.42
2018-03-29T12:50:05.298Z,74.52
2018-03-29T12:51:05.360Z,71.08
2018-03-29T12:52:05.297Z,79.77